Troy, SC

5:19 PM EDT on September 01, 2014 (GMT -0400)
Chamberlains Ferry Rd | Change Station
CLOSE
Current Station
Personal Weather Station
Location: McCormick, SC
Elevation: 463 ft
Nearby Weather Stations

Elev 463 ft 33.88 °N, 82.34 °W | Updated 13 minutes ago

Partly Cloudy
Partly Cloudy
98.4 °F
Feels Like 110 °F
N
0.0
Wind Variable Wind from SSE

Today
High -- | Low -- °F
--% Chance of Precip.
Yesterday
High -- | Low -- °F
Precip. -- in
7:02 AM 7:54 PM
Waxing Crescent, 44% visible
Pressure 30.05 in
Visibility 10.0 miles
Clouds Clear
Heat Index 110 °F
Dew Point 73 °F
Humidity 45%
Rainfall 0.00 in
Snow Depth Not available.
UV 4 out of 12
Pollen 9.30 out of 12
Ozone Good
PM2.5 Good
Flu Activity Not available.
METAR KGRD 012056Z AUTO 29006KT 10SM CLR 34/16 A3007 RMK AO2 LTG DSNT E AND SE SLP175 T03390161 58017

More Conditions Fewer Conditions

Pressure 30.05 in
Visibility 10.0 miles
Clouds Clear
Heat Index 110 °F
Dew Point 73 °F
Humidity 45%
Rainfall 0.00 in
Snow Depth Not available.
UV 4 out of 12
Pollen 9.30 out of 12
Ozone Good
PM2.5 Good
Flu Activity Not available.
METAR KGRD 012056Z AUTO 29006KT 10SM CLR 34/16 A3007 RMK AO2 LTG DSNT E AND SE SLP175 T03390161 58017

More Conditions Fewer Conditions

10-Day Weather Forecast

Almanac

Astronomy

Sep. 01, 2014 Rise Set
Actual Time 7:02 AM EDT 7:54 PM EDT
Civil Twilight 6:37 AM EDT 8:20 PM EDT
Nautical Twilight 6:07 AM EDT 8:50 PM EDT
Astronomical Twilight 5:36 AM EDT 9:21 PM EDT
Moon 1:28 PM EDT No Moon Set
Length of Visible Light 13h 43m
Length of Day
12h 52m
Tomorrow will be 2m 2s shorter.
Waxing Crescent, 44% of the Moon is Illuminated
Today
Waxing Crescent
Sep 2
First Quarter
Sep 8
Full
Sep 15
Last Quarter
Sep 24
New

Today's Extremes

State Highs State Lows

Community

WunderPhotos

Upload Photos

1,749,409 photos uploaded!

WunderBlogs® & News

Nearby

Air Quality

  Air Quality AQ Index Pollutant
Yesterday Good
OZONE
Yesterday Good
PM2.5
Current Good
PM2.5
Current Good
OZONE
Monday Good
OZONE
Tuesday Good
OZONE

Snow Depth

Station Depth Elevation
No new snow has been reported.

Earthquake Activity

City Distance Mag. Time & Date
No recent earthquake activity has been reported nearby.
Minimum magnitude displayed is 2.5.

Coastal Water Temperatures

Place Temperature
No Stations Reporting

Nearby Weather Stations